Time;durP1;ratioP1;P1;durP2;ratioP2;P2;SDS_P1;SDS_P2;PMS_P1;PMS_P2;Temp;Humidity;BMP_temperature;BMP_pressure;BME280_temperature;BME280_humidity;BME280_pressure;Samples;Min_cycle;Max_cycle;Signal;HPM_P1;HPM_P2
2024/02/17 00:00:17;;;;;;;0.73;0.40;;;;;;;12.00;93.45;96201.50;5005065;28;20236;-80
2024/02/17 00:02:42;;;;;;;0.83;0.50;;;;;;;12.02;93.89;96204.81;5003332;28;20249;-81
2024/02/17 00:05:07;;;;;;;0.50;0.40;;;;;;;12.03;93.64;96209.06;5003888;28;20543;-80
2024/02/17 00:07:33;;;;;;;1.37;0.70;;;;;;;12.09;93.02;96211.09;5004013;28;20207;-80
2024/02/17 00:09:58;;;;;;;2.57;0.67;;;;;;;12.11;93.32;96211.78;5002523;28;20281;-81
2024/02/17 00:12:24;;;;;;;0.60;0.40;;;;;;;12.07;93.45;96215.63;5019648;28;20209;-80
2024/02/17 00:14:49;;;;;;;0.40;0.40;;;;;;;12.02;93.99;96219.63;5013888;28;20318;-80
2024/02/17 00:17:14;;;;;;;1.03;0.33;;;;;;;12.04;93.99;96215.09;5019733;28;20183;-80
2024/02/17 00:19:40;;;;;;;0.57;0.40;;;;;;;12.05;93.68;96221.94;5020341;28;20200;-80
2024/02/17 00:22:05;;;;;;;0.47;0.47;;;;;;;12.06;94.06;96219.19;5018082;28;20566;-81
2024/02/17 00:24:30;;;;;;;0.60;0.43;;;;;;;12.07;94.11;96220.00;5000863;28;20202;-80
2024/02/17 00:26:56;;;;;;;0.97;0.60;;;;;;;12.03;94.05;96221.25;5003730;28;21102;-81
2024/02/17 00:29:21;;;;;;;0.40;0.40;;;;;;;12.07;94.02;96226.03;5010854;28;20727;-79
2024/02/17 00:31:47;;;;;;;0.77;0.40;;;;;;;12.05;94.32;96233.16;5023472;28;20264;-80
2024/02/17 00:34:16;;;;;;;1.20;0.50;;;;;;;12.01;94.88;96230.97;5018101;28;20227;-81
2024/02/17 00:36:41;;;;;;;0.40;0.40;;;;;;;11.95;95.02;96236.75;5014524;28;20179;-80
2024/02/17 00:39:07;;;;;;;1.57;0.40;;;;;;;11.91;95.52;96237.00;5019061;28;20189;-81
2024/02/17 00:41:32;;;;;;;0.70;0.50;;;;;;;11.99;94.98;96233.72;5018917;28;20294;-80
2024/02/17 00:43:57;;;;;;;0.80;0.40;;;;;;;11.93;95.06;96234.28;5019075;28;20215;-81
2024/02/17 00:46:23;;;;;;;0.50;0.50;;;;;;;11.96;95.22;96244.41;5020305;28;20250;-80
2024/02/17 00:48:48;;;;;;;2.50;0.50;;;;;;;11.97;95.18;96240.03;5017866;28;20237;-80
2024/02/17 00:51:17;;;;;;;0.50;0.50;;;;;;;11.97;95.39;96251.25;5008492;28;20811;-81
2024/02/17 00:53:42;;;;;;;0.60;0.57;;;;;;;11.95;95.38;96253.19;5019572;28;20210;-81
2024/02/17 00:56:08;;;;;;;0.50;0.50;;;;;;;11.91;96.16;96246.59;5019960;28;20188;-81
2024/02/17 00:58:33;;;;;;;0.60;0.60;;;;;;;11.96;95.55;96254.00;5025508;28;20214;-80
2024/02/17 01:00:59;;;;;;;2.00;0.50;;;;;;;11.98;95.58;96252.06;5018288;28;20400;-79
2024/02/17 01:03:24;;;;;;;0.60;0.50;;;;;;;11.99;95.65;96258.91;5018643;28;20338;-81
2024/02/17 01:05:50;;;;;;;2.40;0.80;;;;;;;11.99;95.49;96251.94;5011562;28;20207;-80
2024/02/17 01:08:15;;;;;;;0.50;0.50;;;;;;;11.97;95.33;96255.66;5017686;28;20645;-79
2024/02/17 01:10:41;;;;;;;0.60;0.57;;;;;;;11.91;96.36;96265.63;5003349;28;20726;-79
2024/02/17 01:13:07;;;;;;;1.30;0.57;;;;;;;11.91;96.34;96263.03;5011476;28;20365;-81
2024/02/17 01:15:32;;;;;;;1.13;0.50;;;;;;;11.88;96.41;96270.31;5019131;28;20190;-80
2024/02/17 01:17:57;;;;;;;0.40;0.40;;;;;;;11.86;96.58;96269.63;5003436;28;20187;-80
2024/02/17 01:20:23;;;;;;;0.83;0.50;;;;;;;11.85;96.48;96268.00;5020187;28;20190;-81
2024/02/17 01:22:48;;;;;;;0.50;0.50;;;;;;;11.78;96.93;96267.69;5012298;28;20218;-81
2024/02/17 01:25:14;;;;;;;0.50;0.50;;;;;;;11.88;96.49;96265.91;5016499;28;20595;-80
2024/02/17 01:27:40;;;;;;;0.50;0.50;;;;;;;11.67;98.08;96275.63;5013296;28;20646;-80
2024/02/17 01:30:05;;;;;;;0.60;0.60;;;;;;;11.67;97.88;96277.41;5017143;28;20191;-79
2024/02/17 01:32:31;;;;;;;1.47;0.60;;;;;;;11.75;97.96;96274.91;5020756;28;20218;-80
2024/02/17 01:34:56;;;;;;;0.53;0.47;;;;;;;11.79;97.42;96279.72;5014464;28;20190;-81
2024/02/17 01:37:21;;;;;;;0.50;0.50;;;;;;;11.67;98.28;96286.03;5020919;28;20191;-80
2024/02/17 01:39:47;;;;;;;1.13;0.53;;;;;;;11.70;98.31;96282.31;5005290;28;20206;-80
2024/02/17 01:42:12;;;;;;;0.50;0.50;;;;;;;11.80;97.65;96288.38;5003208;28;20187;-80
2024/02/17 01:44:38;;;;;;;0.60;0.50;;;;;;;11.75;97.17;96286.19;5015431;28;20580;-79
2024/02/17 01:47:04;;;;;;;0.60;0.60;;;;;;;11.76;97.99;96289.59;5011446;28;20207;-81
2024/02/17 01:49:29;;;;;;;0.50;0.50;;;;;;;11.81;97.63;96293.44;5019522;28;20210;-81
2024/02/17 01:51:56;;;;;;;0.67;0.67;;;;;;;11.82;97.42;96294.25;5009342;28;20198;-81
2024/02/17 01:54:22;;;;;;;0.60;0.60;;;;;;;11.86;97.12;96300.84;5019906;28;20236;-79
2024/02/17 01:56:48;;;;;;;0.70;0.70;;;;;;;11.72;98.25;96312.44;5019396;28;20930;-79
2024/02/17 01:59:14;;;;;;;1.63;1.43;;;;;;;11.19;100.00;96314.53;5000071;28;20187;-80
2024/02/17 02:01:43;;;;;;;4.70;4.20;;;;;;;10.52;100.00;96323.72;4999534;28;20670;-81
2024/02/17 02:04:10;;;;;;;5.30;4.80;;;;;;;10.61;100.00;96317.75;5017044;28;20207;-80
2024/02/17 02:06:38;;;;;;;5.10;4.60;;;;;;;10.67;100.00;96319.81;5018650;28;20198;-80
2024/02/17 02:09:03;;;;;;;6.57;5.93;;;;;;;10.73;100.00;96328.88;4997810;28;20195;-80
2024/02/17 02:11:29;;;;;;;10.47;8.33;;;;;;;10.76;100.00;96336.41;5015212;28;20230;-81
2024/02/17 02:14:14;;;;;;;12.37;10.30;;;;;;;10.88;99.74;96335.38;5011375;28;20206;-79
2024/02/17 02:16:40;;;;;;;12.73;10.43;;;;;;;10.84;99.50;96346.97;5016187;28;20217;-81
2024/02/17 02:19:05;;;;;;;13.73;11.67;;;;;;;10.84;99.57;96344.38;5018555;28;20213;-81
2024/02/17 02:21:30;;;;;;;14.63;12.13;;;;;;;10.93;99.11;96346.19;5011440;28;20751;-81
2024/02/17 02:23:56;;;;;;;14.33;11.57;;;;;;;10.85;99.01;96345.19;5015138;28;20215;-79
2024/02/17 02:26:23;;;;;;;13.47;11.20;;;;;;;10.77;99.43;96345.81;5015762;28;20221;-79
2024/02/17 02:28:49;;;;;;;13.77;10.93;;;;;;;10.67;100.00;96352.75;5018901;28;20191;-81
2024/02/17 02:31:14;;;;;;;16.03;12.70;;;;;;;10.57;100.00;96357.91;5015841;28;20690;-81
2024/02/17 02:33:40;;;;;;;15.10;12.30;;;;;;;10.37;100.00;96356.13;4983220;28;20272;-81
2024/02/17 02:36:06;;;;;;;14.07;11.43;;;;;;;10.22;100.00;96363.41;5021006;28;20183;-80
2024/02/17 02:38:31;;;;;;;15.50;12.63;;;;;;;10.55;99.32;96371.97;5020719;28;20220;-81
2024/02/17 02:40:56;;;;;;;13.47;11.07;;;;;;;10.49;99.18;96381.06;5018738;28;20205;-79
2024/02/17 02:43:22;;;;;;;12.80;10.70;;;;;;;10.26;99.90;96379.56;5016816;28;20294;-81
2024/02/17 02:45:47;;;;;;;11.93;10.23;;;;;;;10.16;99.45;96374.28;5004208;28;20688;-81
2024/02/17 02:48:12;;;;;;;13.10;10.67;;;;;;;10.37;99.01;96382.91;5004229;28;20610;-80
2024/02/17 02:50:38;;;;;;;15.50;10.90;;;;;;;10.52;97.59;96390.41;5023813;28;20194;-81
2024/02/17 02:53:03;;;;;;;16.50;10.53;;;;;;;10.60;96.82;96387.97;5006040;28;20207;-79
2024/02/17 02:55:28;;;;;;;10.63;9.53;;;;;;;10.33;98.08;96388.47;5021007;28;20325;-80
2024/02/17 02:57:54;;;;;;;11.27;10.07;;;;;;;10.54;97.09;96394.53;5006639;28;20688;-81
2024/02/17 03:00:19;;;;;;;15.33;10.47;;;;;;;10.52;96.93;96393.00;5027225;28;20784;-81
2024/02/17 03:02:44;;;;;;;13.60;10.17;;;;;;;10.52;96.48;96396.44;5012877;28;20213;-81
2024/02/17 03:05:10;;;;;;;13.70;9.67;;;;;;;10.50;96.87;96393.94;5026102;28;20269;-81
2024/02/17 03:07:35;;;;;;;12.13;10.47;;;;;;;10.50;96.81;96393.94;5025586;28;20293;-80
2024/02/17 03:10:02;;;;;;;12.33;10.00;;;;;;;10.50;96.71;96399.13;5008330;28;20703;-82
2024/02/17 03:12:28;;;;;;;13.10;10.90;;;;;;;10.55;96.61;96400.53;5016579;28;20687;-81
2024/02/17 03:14:53;;;;;;;12.40;9.17;;;;;;;10.43;96.51;96397.19;5022489;28;20191;-81
2024/02/17 03:17:19;;;;;;;12.83;10.63;;;;;;;10.41;96.64;96399.88;5011239;28;20186;-81
2024/02/17 03:19:44;;;;;;;12.20;9.83;;;;;;;10.19;97.95;96405.16;5010373;28;20218;-81
2024/02/17 03:22:10;;;;;;;13.80;11.00;;;;;;;10.21;98.36;96406.66;5024072;28;20661;-81
2024/02/17 03:24:35;;;;;;;13.50;10.73;;;;;;;10.19;98.66;96416.38;5006077;28;20282;-80
2024/02/17 03:27:00;;;;;;;13.27;11.03;;;;;;;10.36;97.13;96412.44;5006891;28;20237;-81
2024/02/17 03:29:26;;;;;;;15.97;11.70;;;;;;;10.46;96.71;96417.69;5013093;28;20189;-81
2024/02/17 03:31:51;;;;;;;13.83;10.90;;;;;;;10.48;96.38;96418.38;5006536;28;20186;-80
2024/02/17 03:34:17;;;;;;;13.63;10.10;;;;;;;10.36;96.58;96422.81;5024635;28;20240;-81
2024/02/17 03:36:42;;;;;;;12.47;9.77;;;;;;;10.43;96.38;96423.16;5010617;28;20631;-81
2024/02/17 03:39:10;;;;;;;13.00;10.33;;;;;;;10.50;96.10;96419.06;5007235;28;20256;-81
2024/02/17 03:41:36;;;;;;;12.57;9.80;;;;;;;10.46;95.67;96418.53;5023500;28;20500;-81
2024/02/17 03:44:03;;;;;;;13.93;10.07;;;;;;;10.52;95.36;96424.16;5016547;28;20260;-79
2024/02/17 03:46:29;;;;;;;11.63;8.47;;;;;;;10.50;94.73;96432.88;5025464;28;20226;-80
2024/02/17 03:48:54;;;;;;;10.03;8.30;;;;;;;10.53;95.01;96434.44;5017144;28;20194;-80
2024/02/17 03:51:19;;;;;;;11.00;8.53;;;;;;;10.50;94.46;96430.28;5009209;28;20198;-80
2024/02/17 03:53:46;;;;;;;10.17;8.37;;;;;;;10.49;94.82;96433.00;5008613;28;20229;-81
2024/02/17 03:56:14;;;;;;;10.80;8.27;;;;;;;10.42;94.32;96437.06;5009485;28;20290;-79
2024/02/17 03:58:39;;;;;;;9.73;7.93;;;;;;;10.38;94.34;96440.88;5005719;28;20649;-81
2024/02/17 04:01:05;;;;;;;11.43;8.20;;;;;;;10.34;94.72;96444.66;5005793;28;20191;-81
2024/02/17 04:03:31;;;;;;;8.60;7.20;;;;;;;10.38;94.27;96446.88;5004642;28;20256;-80
2024/02/17 04:05:56;;;;;;;9.40;7.93;;;;;;;10.42;94.06;96448.28;5001287;28;20203;-79
2024/02/17 04:08:22;;;;;;;8.47;6.43;;;;;;;10.48;93.87;96457.34;5019216;28;20307;-80
2024/02/17 04:10:47;;;;;;;8.40;5.70;;;;;;;10.37;93.61;96463.41;4998219;28;20191;-80
2024/02/17 04:13:12;;;;;;;8.00;6.63;;;;;;;10.43;93.33;96460.31;5004685;28;20739;-80
2024/02/17 04:15:38;;;;;;;8.33;6.20;;;;;;;10.44;93.15;96461.97;5019812;28;20290;-80
2024/02/17 04:18:08;;;;;;;5.10;4.60;;;;;;;10.37;93.08;96470.38;5018575;28;20233;-78
2024/02/17 04:20:37;;;;;;;5.97;5.10;;;;;;;10.37;92.44;96476.38;5018257;28;20600;-81
2024/02/17 04:23:02;;;;;;;5.80;4.80;;;;;;;10.31;92.35;96481.25;5017789;28;20665;-79
2024/02/17 04:25:27;;;;;;;7.77;5.90;;;;;;;10.31;92.56;96483.84;5018602;28;20218;-81
2024/02/17 04:27:53;;;;;;;8.50;6.23;;;;;;;10.34;92.69;96491.41;5019495;28;20182;-81
2024/02/17 04:30:19;;;;;;;9.40;7.03;;;;;;;10.42;92.28;96500.22;5016317;28;20191;-80
2024/02/17 04:32:44;;;;;;;9.77;6.83;;;;;;;10.45;92.47;96497.38;5035301;28;20256;-79
2024/02/17 04:35:10;;;;;;;9.83;6.90;;;;;;;10.44;92.77;96505.28;5015766;28;20195;-80
2024/02/17 04:37:37;;;;;;;9.40;6.90;;;;;;;10.38;92.46;96505.78;5009598;28;20265;-81
2024/02/17 04:40:03;;;;;;;6.57;5.83;;;;;;;10.43;92.58;96512.25;5012953;28;20203;-80
2024/02/17 04:42:28;;;;;;;7.90;6.47;;;;;;;10.45;92.71;96514.72;5019416;28;20221;-80
2024/02/17 04:44:54;;;;;;;10.27;7.37;;;;;;;10.46;92.47;96516.38;5014474;28;20274;-81
2024/02/17 04:47:19;;;;;;;11.10;7.50;;;;;;;10.43;92.60;96517.44;5003668;28;20294;-80
2024/02/17 04:49:44;;;;;;;9.17;7.50;;;;;;;10.40;93.19;96520.28;5019490;28;20191;-80
2024/02/17 04:52:10;;;;;;;9.80;8.57;;;;;;;10.34;93.40;96522.56;5018000;28;20644;-81
2024/02/17 04:54:35;;;;;;;11.00;9.37;;;;;;;10.28;94.09;96523.88;5017414;28;20186;-81
2024/02/17 04:57:00;;;;;;;12.10;9.17;;;;;;;10.45;93.57;96525.13;5019317;28;20195;-80
2024/02/17 04:59:26;;;;;;;12.03;9.20;;;;;;;10.47;93.28;96534.44;5001306;28;20622;-81
2024/02/17 05:01:52;;;;;;;12.17;9.37;;;;;;;10.44;93.31;96534.69;4999890;28;20218;-80
2024/02/17 05:04:17;;;;;;;12.13;9.10;;;;;;;10.30;94.57;96536.72;5021643;28;20234;-80
2024/02/17 05:06:46;;;;;;;12.60;10.40;;;;;;;10.20;95.17;96542.59;5018566;28;20214;-80
2024/02/17 05:09:11;;;;;;;15.33;11.13;;;;;;;10.28;94.81;96547.22;5018817;28;20190;-79
2024/02/17 05:11:40;;;;;;;15.77;12.20;;;;;;;10.27;94.69;96545.59;5000764;28;20660;-80
2024/02/17 05:14:05;;;;;;;12.70;10.93;;;;;;;10.36;94.86;96551.81;5018147;28;20203;-81
2024/02/17 05:16:30;;;;;;;16.73;12.53;;;;;;;10.40;94.65;96555.81;5005680;28;20186;-79
2024/02/17 05:18:56;;;;;;;17.13;13.30;;;;;;;10.34;95.01;96561.50;5017774;28;20187;-81
2024/02/17 05:21:21;;;;;;;19.13;12.90;;;;;;;10.40;95.15;96559.22;5002782;28;20215;-81
2024/02/17 05:23:46;;;;;;;17.63;13.00;;;;;;;10.41;94.89;96563.47;5021110;28;20217;-81
2024/02/17 05:26:12;;;;;;;16.60;13.13;;;;;;;10.42;94.88;96564.28;5005499;28;20257;-81
2024/02/17 05:28:37;;;;;;;16.27;12.40;;;;;;;10.18;96.09;96562.66;5001385;28;20187;-79
2024/02/17 05:31:03;;;;;;;16.57;12.50;;;;;;;10.26;95.41;96562.09;5006746;28;20672;-80
2024/02/17 05:33:28;;;;;;;18.93;13.90;;;;;;;10.32;95.37;96564.19;5020553;28;20209;-80
2024/02/17 05:35:54;;;;;;;17.27;13.53;;;;;;;10.36;95.23;96565.63;5013532;28;20278;-79
2024/02/17 05:38:19;;;;;;;17.73;13.30;;;;;;;10.35;95.01;96571.75;5005416;28;20198;-80
2024/02/17 05:40:45;;;;;;;19.47;14.03;;;;;;;10.37;94.76;96575.06;5017985;28;20234;-80
2024/02/17 05:43:10;;;;;;;17.13;13.60;;;;;;;10.37;94.75;96575.06;5002815;28;20247;-81
2024/02/17 05:45:35;;;;;;;17.07;13.50;;;;;;;10.23;95.79;96580.50;5021023;28;20536;-80
2024/02/17 05:48:01;;;;;;;17.00;13.53;;;;;;;10.27;95.32;96584.53;5011746;28;20229;-80
2024/02/17 05:50:26;;;;;;;22.13;13.90;;;;;;;10.30;95.08;96584.28;5002734;28;20652;-81
2024/02/17 05:52:51;;;;;;;20.30;15.10;;;;;;;10.17;95.47;96589.56;5016387;28;20261;-80
2024/02/17 05:55:17;;;;;;;18.10;13.93;;;;;;;10.32;95.01;96597.13;5019424;28;20240;-82
2024/02/17 05:57:42;;;;;;;18.63;14.43;;;;;;;10.29;94.52;96593.00;5003723;28;20193;-81
2024/02/17 06:00:09;;;;;;;17.17;13.70;;;;;;;9.91;96.90;96599.38;5001807;28;20262;-80
2024/02/17 06:02:34;;;;;;;17.47;14.00;;;;;;;9.92;96.65;96600.19;5010236;28;20222;-80
2024/02/17 06:05:00;;;;;;;18.97;14.63;;;;;;;10.08;96.77;96605.88;5023005;28;20195;-80
2024/02/17 06:07:26;;;;;;;20.23;14.40;;;;;;;9.93;97.49;96613.06;5018936;28;20210;-80
2024/02/17 06:09:52;;;;;;;20.40;15.90;;;;;;;10.16;96.56;96613.06;5014151;28;20337;-81
2024/02/17 06:12:17;;;;;;;19.33;15.23;;;;;;;9.96;97.55;96624.97;5001843;28;20198;-81
2024/02/17 06:14:42;;;;;;;23.53;15.77;;;;;;;9.82;98.82;96620.00;5018007;28;20191;-80
2024/02/17 06:17:08;;;;;;;23.33;15.20;;;;;;;9.88;98.84;96620.34;5007361;28;20265;-78
2024/02/17 06:22:17;;;;;;;22.83;16.47;;;;;;;10.07;97.73;96624.97;5021327;28;20190;-80
2024/02/17 06:24:42;;;;;;;27.63;18.50;;;;;;;10.05;98.11;96629.44;5015741;28;20202;-79
2024/02/17 06:27:08;;;;;;;26.67;18.43;;;;;;;10.16;97.24;96639.03;5017598;28;20203;-79
2024/02/17 06:29:33;;;;;;;27.47;18.67;;;;;;;10.23;97.21;96634.19;5019213;28;20190;-80
2024/02/17 06:31:58;;;;;;;21.67;15.87;;;;;;;10.33;96.54;96638.53;5017127;28;20563;-79
2024/02/17 06:34:24;;;;;;;26.80;19.50;;;;;;;10.31;96.09;96637.84;5017659;28;20214;-80
2024/02/17 06:36:49;;;;;;;40.70;30.30;;;;;;;10.23;97.16;96648.00;5019462;28;20240;-80
2024/02/17 06:39:14;;;;;;;37.57;25.47;;;;;;;10.29;96.62;96652.72;5004595;28;20599;-79
2024/02/17 06:41:40;;;;;;;34.40;22.00;;;;;;;10.36;96.53;96658.28;5004651;28;20573;-80
2024/02/17 06:44:05;;;;;;;28.90;21.10;;;;;;;10.41;96.32;96662.13;4999982;28;20755;-79
2024/02/17 06:46:30;;;;;;;28.30;19.77;;;;;;;10.41;96.42;96666.50;5015867;28;20217;-80
2024/02/17 06:48:56;;;;;;;29.97;19.80;;;;;;;10.39;96.78;96671.00;5018455;28;20202;-83
2024/02/17 06:51:22;;;;;;;24.80;18.77;;;;;;;10.31;97.14;96669.00;5019220;28;20181;-82
2024/02/17 06:53:48;;;;;;;23.47;17.20;;;;;;;10.25;97.71;96679.88;5010371;28;20203;-81
2024/02/17 06:56:14;;;;;;;24.67;16.73;;;;;;;10.19;97.33;96678.53;5022261;28;20206;-83
2024/02/17 06:58:41;;;;;;;24.30;18.33;;;;;;;10.00;99.49;96685.25;5001728;28;20206;-83
2024/02/17 07:01:06;;;;;;;23.63;17.17;;;;;;;10.08;98.72;96688.91;5003482;28;20195;-83
2024/02/17 07:03:32;;;;;;;26.17;17.87;;;;;;;10.10;97.54;96688.78;5007635;28;20293;-84
2024/02/17 07:05:57;;;;;;;27.67;19.83;;;;;;;10.12;97.83;96695.50;5010930;28;20214;-82
2024/02/17 07:08:23;;;;;;;24.33;17.47;;;;;;;10.09;97.86;96705.31;5002634;28;20684;-81
2024/02/17 07:10:48;;;;;;;27.87;19.93;;;;;;;10.10;97.66;96697.41;4997192;28;20195;-83
2024/02/17 07:13:13;;;;;;;25.13;16.90;;;;;;;9.67;99.44;96714.53;5007136;28;20218;-83
2024/02/17 07:15:39;;;;;;;24.20;18.13;;;;;;;9.77;98.48;96711.13;5005909;28;20191;-82
2024/02/17 07:18:04;;;;;;;56.90;39.43;;;;;;;9.97;97.91;96721.78;5006729;28;20202;-82
2024/02/17 07:20:30;;;;;;;28.57;18.70;;;;;;;9.85;97.80;96723.53;5020875;28;20178;-81
2024/02/17 07:22:59;;;;;;;84.13;53.47;;;;;;;10.03;97.16;96729.94;5023211;28;20206;-76
2024/02/17 07:25:29;;;;;;;92.43;55.33;;;;;;;9.93;96.84;96735.00;5015266;28;20186;-77
2024/02/17 07:27:58;;;;;;;38.40;26.53;;;;;;;10.07;96.99;96735.72;5014013;28;20326;-77
2024/02/17 07:30:25;;;;;;;37.53;26.07;;;;;;;10.13;96.19;96737.88;5017632;28;20537;-77
2024/02/17 07:32:51;;;;;;;31.63;26.03;;;;;;;10.17;96.23;96737.53;5003260;28;20265;-78
2024/02/17 07:35:16;;;;;;;24.10;18.30;;;;;;;10.12;96.67;96747.41;5003355;28;20725;-77
2024/02/17 07:37:41;;;;;;;27.03;19.30;;;;;;;10.08;96.75;96748.59;5022602;28;20306;-78
2024/02/17 07:40:08;;;;;;;25.53;18.90;;;;;;;10.19;95.49;96752.97;5021218;28;20328;-77
2024/02/17 07:42:34;;;;;;;26.27;19.03;;;;;;;10.37;95.14;96756.00;5019005;28;20237;-77
2024/02/17 07:44:59;;;;;;;23.23;17.77;;;;;;;10.40;94.69;96756.56;5018890;28;20187;-77
2024/02/17 07:47:25;;;;;;;22.57;16.73;;;;;;;10.06;95.38;96767.81;5020232;28;20211;-81
2024/02/17 07:49:50;;;;;;;25.37;18.93;;;;;;;10.08;95.50;96769.38;5019500;28;20206;-80
2024/02/17 07:52:15;;;;;;;26.83;21.30;;;;;;;10.22;95.54;96773.53;5015663;28;20191;-79
2024/02/17 07:54:41;;;;;;;26.50;18.37;;;;;;;10.28;95.27;96773.09;5018957;28;20566;-79
2024/02/17 07:57:08;;;;;;;22.47;16.30;;;;;;;10.31;95.37;96778.03;5015746;28;20653;-80
2024/02/17 07:59:33;;;;;;;57.23;38.73;;;;;;;10.22;94.91;96783.94;5019767;28;20712;-79
2024/02/17 08:01:58;;;;;;;28.90;20.33;;;;;;;10.56;93.55;96787.41;5016838;28;20194;-80
2024/02/17 08:04:24;;;;;;;21.60;16.80;;;;;;;10.71;92.98;96788.84;5003564;28;20245;-79
2024/02/17 08:06:52;;;;;;;25.47;21.73;;;;;;;10.80;93.15;96796.88;5006181;28;20198;-80
2024/02/17 08:09:17;;;;;;;22.67;16.30;;;;;;;10.85;92.15;96798.13;5017039;28;20198;-80
2024/02/17 08:11:49;;;;;;;21.70;16.80;;;;;;;10.76;91.98;96806.66;5019463;28;20664;-80
2024/02/17 08:14:15;;;;;;;25.17;16.60;;;;;;;10.76;92.04;96807.47;5021580;28;20211;-80
2024/02/17 08:16:40;;;;;;;22.67;18.23;;;;;;;10.73;92.29;96812.91;5007254;28;20183;-80
2024/02/17 08:19:07;;;;;;;26.43;20.13;;;;;;;10.89;91.35;96815.16;5017880;28;20183;-80
2024/02/17 08:21:32;;;;;;;22.40;14.70;;;;;;;10.68;91.19;96820.22;5019716;28;20183;-80
2024/02/17 08:23:58;;;;;;;20.63;15.20;;;;;;;10.73;90.59;96822.47;5010988;28;20213;-80
2024/02/17 08:26:23;;;;;;;19.93;14.27;;;;;;;10.78;90.41;96830.75;4999694;28;20203;-80
2024/02/17 08:28:48;;;;;;;19.83;14.60;;;;;;;10.84;89.58;96826.84;5013050;28;20652;-80
2024/02/17 08:31:14;;;;;;;18.20;14.53;;;;;;;10.75;89.98;96830.97;5017406;28;20576;-79
2024/02/17 08:33:39;;;;;;;21.17;17.10;;;;;;;10.89;89.19;96828.16;5007758;28;20711;-81
2024/02/17 08:36:05;;;;;;;19.83;15.80;;;;;;;11.04;88.79;96839.97;5005155;28;20523;-80
2024/02/17 08:38:30;;;;;;;19.50;14.30;;;;;;;11.05;87.95;96838.22;5024001;28;20229;-80
2024/02/17 08:40:55;;;;;;;17.80;12.43;;;;;;;10.55;88.51;96837.69;5003930;28;20262;-80
2024/02/17 08:43:21;;;;;;;16.63;12.33;;;;;;;10.49;90.12;96838.97;5018203;28;20297;-78
2024/02/17 08:45:46;;;;;;;16.87;12.87;;;;;;;10.90;88.14;96840.22;5003254;28;20187;-79
2024/02/17 08:48:12;;;;;;;20.50;13.17;;;;;;;11.01;88.02;96837.59;5024553;28;20187;-79
2024/02/17 08:50:37;;;;;;;18.10;13.33;;;;;;;11.08;88.09;96845.75;5005973;28;20194;-79
2024/02/17 08:53:03;;;;;;;19.93;13.60;;;;;;;11.22;87.77;96845.53;5000491;28;20611;-79
2024/02/17 08:55:28;;;;;;;20.33;11.40;;;;;;;11.18;86.73;96854.50;5017029;28;20195;-78
2024/02/17 08:57:54;;;;;;;16.33;12.33;;;;;;;11.35;85.92;96854.00;5005070;28;20657;-79
2024/02/17 09:00:22;;;;;;;15.63;11.73;;;;;;;11.30;85.96;96861.31;5007429;28;20190;-80
2024/02/17 09:02:48;;;;;;;17.43;12.97;;;;;;;11.32;85.01;96862.06;5020042;28;20252;-80
2024/02/17 09:05:13;;;;;;;14.30;11.70;;;;;;;11.46;84.19;96863.56;5010063;28;20281;-80
2024/02/17 09:07:38;;;;;;;16.90;11.83;;;;;;;11.50;84.24;96866.75;5020529;28;20246;-79
2024/02/17 09:10:04;;;;;;;15.33;11.63;;;;;;;11.57;83.78;96867.91;5015452;28;20550;-80
2024/02/17 09:12:30;;;;;;;15.60;12.07;;;;;;;11.60;84.60;96865.06;5008953;28;20237;-80
2024/02/17 09:14:55;;;;;;;17.00;10.73;;;;;;;11.78;82.96;96871.41;5018080;28;20189;-79
2024/02/17 09:17:20;;;;;;;14.57;11.87;;;;;;;11.96;82.64;96874.34;5004867;28;20724;-79
2024/02/17 09:19:46;;;;;;;88.67;55.23;;;;;;;12.15;82.44;96876.28;5017677;28;20195;-79
2024/02/17 09:22:14;;;;;;;19.17;13.87;;;;;;;12.42;81.02;96881.84;5007825;28;20183;-79
2024/02/17 09:24:39;;;;;;;12.47;10.97;;;;;;;12.60;81.08;96882.09;5010167;28;20218;-79
2024/02/17 09:27:05;;;;;;;30.47;27.57;;;;;;;12.65;79.49;96887.75;5007291;28;20774;-79
2024/02/17 09:29:31;;;;;;;16.20;11.73;;;;;;;12.69;79.16;96890.94;5018761;28;20198;-79
2024/02/17 09:31:56;;;;;;;14.67;11.73;;;;;;;12.91;78.42;96903.00;5006388;28;20187;-82
2024/02/17 09:34:22;;;;;;;13.83;10.73;;;;;;;12.80;78.72;96903.06;5000212;28;20256;-80
2024/02/17 09:36:48;;;;;;;12.00;10.33;;;;;;;12.68;78.78;96902.31;5015611;28;20187;-79
2024/02/17 09:39:14;;;;;;;13.23;9.70;;;;;;;12.40;78.22;96908.97;5019501;28;20187;-79
2024/02/17 09:41:40;;;;;;;12.97;8.93;;;;;;;12.17;78.30;96919.47;5005718;28;20288;-80
2024/02/17 09:44:07;;;;;;;12.80;8.40;;;;;;;12.34;76.59;96918.09;5017266;28;20337;-81
2024/02/17 09:46:32;;;;;;;9.47;7.87;;;;;;;12.50;76.46;96917.69;5020268;28;20210;-80
2024/02/17 09:49:00;;;;;;;18.67;13.40;;;;;;;12.32;77.19;96927.81;5018355;28;20242;-80
2024/02/17 09:51:26;;;;;;;13.30;9.03;;;;;;;11.99;78.52;96931.38;5018282;28;20313;-79
2024/02/17 09:53:53;;;;;;;28.37;25.80;;;;;;;12.25;77.78;96933.66;5011982;28;20297;-79
2024/02/17 09:56:19;;;;;;;17.40;15.57;;;;;;;12.19;77.10;96935.81;5009199;28;20264;-80
2024/02/17 09:58:44;;;;;;;14.53;13.03;;;;;;;12.47;77.46;96939.63;5011830;28;20209;-80
2024/02/17 10:01:11;;;;;;;15.57;12.93;;;;;;;12.49;77.58;96934.28;5018025;28;20562;-78
2024/02/17 10:03:40;;;;;;;14.57;12.83;;;;;;;12.33;77.52;96939.91;5016385;28;20210;-79
2024/02/17 10:06:15;;;;;;;14.27;11.10;;;;;;;12.67;77.36;96939.75;5001705;28;20564;-80
2024/02/17 10:08:41;;;;;;;18.43;11.33;;;;;;;12.56;76.81;96943.25;5018531;28;20214;-80
2024/02/17 10:11:10;;;;;;;10.50;8.60;;;;;;;12.71;76.34;96941.97;5018314;28;20222;-80
2024/02/17 10:13:37;;;;;;;13.13;9.80;;;;;;;12.73;74.91;96950.50;5007238;28;20609;-80
2024/02/17 10:16:13;;;;;;;10.10;8.67;;;;;;;12.66;74.47;96957.16;5002462;28;20198;-80
2024/02/17 10:18:43;;;;;;;11.83;8.23;;;;;;;12.47;72.93;96952.63;5007410;28;20195;-81
2024/02/17 10:21:09;;;;;;;9.77;7.83;;;;;;;12.41;72.42;96958.34;5013419;28;20190;-79
2024/02/17 10:23:35;;;;;;;12.53;8.90;;;;;;;12.77;72.99;96957.09;5003491;28;20215;-80
2024/02/17 10:26:01;;;;;;;13.83;8.63;;;;;;;12.56;72.59;96961.47;5014970;28;20222;-80
2024/02/17 10:28:27;;;;;;;12.63;9.03;;;;;;;12.83;73.13;96962.78;5016964;28;20187;-80
2024/02/17 10:30:52;;;;;;;16.17;12.87;;;;;;;13.15;73.42;96957.47;5005105;28;20270;-80
2024/02/17 10:33:18;;;;;;;11.17;9.53;;;;;;;13.27;73.80;96965.13;5019317;28;20243;-79
2024/02/17 10:35:46;;;;;;;13.07;8.93;;;;;;;13.16;71.59;96959.94;4999558;28;20273;-79
2024/02/17 10:38:12;;;;;;;10.37;8.43;;;;;;;13.46;71.79;96958.34;5017447;28;20273;-80
2024/02/17 10:40:38;;;;;;;12.93;10.30;;;;;;;13.49;71.42;96964.13;5005097;28;20226;-80
2024/02/17 10:43:03;;;;;;;9.70;8.70;;;;;;;13.47;71.07;96973.03;5009566;28;20261;-79
2024/02/17 10:45:28;;;;;;;9.23;7.87;;;;;;;13.27;71.73;96962.53;5015064;28;20195;-79
2024/02/17 10:48:03;;;;;;;11.77;9.63;;;;;;;13.16;70.11;96965.16;5018160;28;20217;-80
2024/02/17 10:50:29;;;;;;;9.90;7.87;;;;;;;13.30;69.34;96970.06;5009906;28;20194;-78
2024/02/17 10:53:19;;;;;;;8.30;7.03;;;;;;;13.28;70.57;96972.00;5002837;28;20582;-80
2024/02/17 10:55:45;;;;;;;7.27;6.53;;;;;;;13.29;69.66;96975.44;5016647;28;20205;-79
2024/02/17 10:58:17;;;;;;;8.30;6.80;;;;;;;13.24;69.30;96972.38;5003444;28;20577;-78
2024/02/17 11:00:47;;;;;;;12.80;7.33;;;;;;;13.38;69.30;96973.81;5014416;28;20183;-79
2024/02/17 11:03:16;;;;;;;8.13;6.83;;;;;;;13.22;68.07;96980.34;5017525;28;20198;-80
2024/02/17 11:05:44;;;;;;;10.10;8.00;;;;;;;13.08;69.83;96985.88;5015129;28;20186;-79
2024/02/17 11:08:09;;;;;;;8.53;6.97;;;;;;;12.73;71.16;96979.19;5018386;28;20187;-79
2024/02/17 11:10:35;;;;;;;8.27;6.60;;;;;;;12.47;70.54;96983.06;5017114;28;20252;-79
2024/02/17 11:13:01;;;;;;;9.53;6.23;;;;;;;12.60;70.48;96985.50;5020058;28;20267;-78
2024/02/17 11:15:27;;;;;;;10.23;6.77;;;;;;;12.70;70.35;96982.00;5020829;28;20209;-79
2024/02/17 11:17:56;;;;;;;10.30;6.77;;;;;;;12.72;70.55;96982.75;5005560;28;20565;-79
2024/02/17 11:20:22;;;;;;;8.10;5.70;;;;;;;12.90;69.39;96984.78;5004131;28;20214;-79